Time;durP1;ratioP1;P1;durP2;ratioP2;P2;SDS_P1;SDS_P2;PMS_P1;PMS_P2;Temp;Humidity;BMP_temperature;BMP_pressure;BME280_temperature;BME280_humidity;BME280_pressure;Samples;Min_cycle;Max_cycle;Signal;HPM_P1;HPM_P2
2021/12/19 00:02:21;;;;;;;40.17;19.50;;;;;;;3.51;70.55;100804.34;5004691;28;20229;-67
2021/12/19 00:10:29;;;;;;;38.57;20.00;;;;;;;3.98;70.10;100803.00;5009357;28;20569;-66
2021/12/19 00:12:57;;;;;;;36.30;20.00;;;;;;;4.54;68.79;100798.25;5010764;28;20252;-67
2021/12/19 00:15:24;;;;;;;41.83;21.83;;;;;;;3.95;70.28;100795.28;5011804;28;20744;-67
2021/12/19 00:17:51;;;;;;;45.07;21.87;;;;;;;3.70;70.53;100807.44;5011163;28;20245;-67
2021/12/19 00:20:18;;;;;;;42.20;20.90;;;;;;;3.73;71.04;100817.81;4990259;28;20234;-67
2021/12/19 00:23:05;;;;;;;44.40;21.13;;;;;;;4.43;67.77;100776.16;5011261;28;20239;-67
2021/12/19 00:25:32;;;;;;;43.37;20.13;;;;;;;4.29;68.88;100785.03;5011599;28;20229;-67
2021/12/19 00:27:59;;;;;;;46.90;21.93;;;;;;;4.42;67.96;100774.50;5011297;28;20236;-67
2021/12/19 00:30:26;;;;;;;46.33;23.17;;;;;;;4.38;67.76;100770.34;5010780;28;20604;-67
2021/12/19 00:32:53;;;;;;;40.50;19.83;;;;;;;4.86;66.71;100770.50;5010068;28;20958;-67
2021/12/19 00:35:20;;;;;;;44.33;20.57;;;;;;;4.49;67.55;100773.94;5010827;28;20613;-67
2021/12/19 00:37:47;;;;;;;41.57;19.70;;;;;;;4.61;67.76;100774.03;5010629;28;20225;-67
2021/12/19 00:40:15;;;;;;;37.10;18.97;;;;;;;4.92;66.25;100767.41;5010807;28;20239;-67
2021/12/19 00:42:42;;;;;;;39.77;19.63;;;;;;;4.64;67.27;100772.00;5009551;28;20245;-67
2021/12/19 00:45:27;;;;;;;36.67;18.83;;;;;;;5.00;66.07;100767.72;5010522;28;20233;-67
2021/12/19 00:47:54;;;;;;;40.47;19.63;;;;;;;4.79;67.17;100774.50;5010669;28;20233;-67
2021/12/19 00:50:22;;;;;;;44.53;20.77;;;;;;;4.47;67.25;100764.44;5010735;28;20234;-67
2021/12/19 00:52:49;;;;;;;43.20;20.63;;;;;;;3.64;70.41;100776.22;5009976;28;20229;-67
2021/12/19 00:55:17;;;;;;;42.37;20.90;;;;;;;3.83;69.27;100773.19;5011052;28;20228;-67
2021/12/19 00:57:45;;;;;;;41.80;21.20;;;;;;;1.92;77.06;100814.94;5010576;28;20240;-68
2021/12/19 01:00:14;;;;;;;45.23;19.90;;;;;;;2.37;73.73;100790.38;5010224;28;20236;-67
2021/12/19 01:02:43;;;;;;;44.50;19.43;;;;;;;3.14;74.32;100798.78;5009183;28;20235;-67
2021/12/19 01:05:11;;;;;;;42.03;19.63;;;;;;;3.29;71.81;100775.81;4992705;28;20229;-67
2021/12/19 01:07:37;;;;;;;48.40;20.00;;;;;;;2.65;73.10;100781.63;5010640;28;20240;-67
2021/12/19 01:10:07;;;;;;;36.33;19.50;;;;;;;3.46;72.63;100782.69;5009666;28;20735;-67
2021/12/19 01:12:38;;;;;;;39.83;18.57;;;;;;;1.75;75.39;100779.09;5009879;28;20652;-67
2021/12/19 01:15:07;;;;;;;41.87;19.27;;;;;;;1.11;80.11;100807.22;4993300;28;20235;-67
2021/12/19 01:17:34;;;;;;;38.93;17.57;;;;;;;1.36;80.38;100805.84;5009841;28;20266;-67
2021/12/19 01:20:05;;;;;;;37.00;19.13;;;;;;;3.01;75.26;100765.28;5010126;28;20233;-67
2021/12/19 01:22:32;;;;;;;44.37;19.70;;;;;;;2.56;74.11;100777.78;5009382;28;20233;-67
2021/12/19 01:24:59;;;;;;;44.07;20.93;;;;;;;2.30;76.80;100792.53;5010101;28;20243;-67
2021/12/19 01:27:26;;;;;;;43.10;20.13;;;;;;;2.44;76.71;100784.66;5009721;28;20263;-67
2021/12/19 01:29:53;;;;;;;37.53;18.87;;;;;;;2.37;75.03;100771.94;5009978;28;20229;-68
2021/12/19 01:32:19;;;;;;;41.53;19.53;;;;;;;3.96;70.73;100734.44;5009766;28;20236;-67
2021/12/19 01:34:46;;;;;;;39.17;18.57;;;;;;;4.23;70.35;100743.19;5008762;28;20232;-67
2021/12/19 01:37:15;;;;;;;37.03;18.27;;;;;;;4.79;67.63;100725.16;5009547;28;20308;-67
2021/12/19 01:39:41;;;;;;;32.10;17.40;;;;;;;4.40;68.71;100732.31;5008748;28;20243;-67
2021/12/19 01:42:11;;;;;;;36.50;17.53;;;;;;;4.53;68.20;100735.78;5009407;28;20751;-68
2021/12/19 01:44:38;;;;;;;37.07;17.37;;;;;;;4.73;66.90;100723.78;5008585;28;20233;-67
2021/12/19 01:47:05;;;;;;;37.03;17.93;;;;;;;4.80;66.63;100724.16;5009973;28;20244;-67
2021/12/19 01:49:32;;;;;;;35.67;18.37;;;;;;;4.53;67.79;100737.56;5009473;28;20236;-67
2021/12/19 01:51:59;;;;;;;35.07;17.83;;;;;;;3.31;71.95;100769.53;5008839;28;20251;-67
2021/12/19 01:54:26;;;;;;;34.67;18.57;;;;;;;4.32;68.71;100735.47;5010026;28;20575;-67
2021/12/19 01:56:53;;;;;;;40.00;18.03;;;;;;;4.43;68.46;100742.66;5008588;28;20648;-67
2021/12/19 01:59:20;;;;;;;30.10;15.00;;;;;;;3.75;70.25;100755.22;5009809;28;20692;-68
2021/12/19 02:01:51;;;;;;;33.80;15.43;;;;;;;3.82;68.45;100736.34;4991684;28;20320;-67
2021/12/19 02:04:19;;;;;;;29.07;14.93;;;;;;;4.08;69.09;100751.25;5008299;28;20235;-67
2021/12/19 02:06:46;;;;;;;25.73;14.77;;;;;;;4.09;68.86;100745.00;5008034;28;20699;-67
2021/12/19 02:09:13;;;;;;;27.73;14.83;;;;;;;4.10;67.37;100724.75;5008966;28;20236;-67
2021/12/19 02:11:41;;;;;;;29.50;16.03;;;;;;;4.46;67.89;100729.22;5006610;28;20225;-67
2021/12/19 02:14:11;;;;;;;30.10;15.03;;;;;;;4.13;67.89;100722.72;5006989;28;20608;-67
2021/12/19 02:16:40;;;;;;;31.83;15.30;;;;;;;4.62;67.56;100736.94;5008918;28;20243;-67
2021/12/19 02:19:08;;;;;;;27.63;14.87;;;;;;;4.84;66.62;100717.72;5008241;28;20235;-67
2021/12/19 02:21:36;;;;;;;30.57;15.63;;;;;;;3.37;69.45;100737.50;5009206;28;20235;-67
2021/12/19 02:24:05;;;;;;;30.07;14.97;;;;;;;4.19;68.67;100750.50;5008929;28;20228;-67
2021/12/19 02:26:33;;;;;;;26.70;14.23;;;;;;;3.42;71.01;100755.66;5008675;28;20293;-66
2021/12/19 02:29:00;;;;;;;23.37;13.17;;;;;;;3.40;71.93;100768.94;5008635;28;20228;-67
2021/12/19 02:31:28;;;;;;;23.57;13.63;;;;;;;3.67;68.16;100731.13;5008674;28;20228;-67
2021/12/19 02:34:04;;;;;;;21.03;12.20;;;;;;;4.41;67.48;100734.00;4994158;28;20229;-67
2021/12/19 02:50:10;;;;;;;17.43;10.30;;;;;;;3.96;69.98;100734.44;5007707;28;20240;-67
2021/12/19 02:52:37;;;;;;;17.13;10.10;;;;;;;4.23;68.78;100724.72;5008300;28;20244;-67
2021/12/19 02:55:06;;;;;;;17.03;10.97;;;;;;;2.25;72.89;100740.13;5008479;28;20232;-67
2021/12/19 02:57:33;;;;;;;17.07;10.37;;;;;;;3.54;72.02;100738.16;5001114;28;20225;-68
2021/12/19 03:00:01;;;;;;;15.93;11.00;;;;;;;3.52;70.68;100735.66;4988993;28;20621;-67
2021/12/19 03:02:28;;;;;;;17.33;10.37;;;;;;;4.21;67.05;100687.00;5008418;28;20601;-66
2021/12/19 03:05:00;;;;;;;15.70;9.47;;;;;;;2.73;72.34;100738.97;4987446;28;20229;-67
2021/12/19 03:07:29;;;;;;;14.47;9.13;;;;;;;2.16;74.03;100743.34;4989059;28;20234;-68
2021/12/19 03:17:58;;;;;;;16.97;10.57;;;;;;;3.78;69.59;100709.31;4998752;28;20218;-68
2021/12/19 03:20:30;;;;;;;18.50;10.57;;;;;;;3.08;70.60;100714.81;4990397;28;20240;-67
2021/12/19 03:22:58;;;;;;;19.60;11.80;;;;;;;1.80;75.45;100741.97;5007580;28;21836;-67
2021/12/19 03:25:27;;;;;;;17.80;10.43;;;;;;;2.39;73.05;100720.03;5008452;28;20231;-67
2021/12/19 03:27:55;;;;;;;17.60;11.63;;;;;;;3.76;70.65;100696.22;5007781;28;20256;-67
2021/12/19 03:30:22;;;;;;;17.83;10.87;;;;;;;2.93;71.94;100712.19;5007503;28;20233;-68
2021/12/19 03:32:49;;;;;;;19.43;12.87;;;;;;;1.40;77.42;100731.13;5007881;28;20233;-67
2021/12/19 03:35:17;;;;;;;21.03;12.60;;;;;;;2.98;74.96;100714.53;5007995;28;20233;-67
2021/12/19 03:37:44;;;;;;;18.73;12.63;;;;;;;2.74;73.07;100714.34;5008659;28;20225;-67
2021/12/19 03:40:13;;;;;;;20.70;12.07;;;;;;;0.99;78.08;100726.44;5007002;28;20225;-67
2021/12/19 03:42:47;;;;;;;18.67;11.43;;;;;;;2.89;73.19;100708.06;5007431;28;20742;-67
2021/12/19 03:45:17;;;;;;;16.53;10.20;;;;;;;3.27;72.20;100698.63;5008796;28;20221;-67
2021/12/19 03:47:46;;;;;;;17.07;9.93;;;;;;;3.49;71.37;100698.06;5010781;28;20606;-67
2021/12/19 03:50:18;;;;;;;15.00;9.17;;;;;;;2.22;72.17;100702.63;4990298;28;20238;-68
2021/12/19 03:52:46;;;;;;;17.23;10.77;;;;;;;2.43;74.77;100717.09;4990857;28;20499;-67
2021/12/19 03:55:13;;;;;;;19.53;11.23;;;;;;;3.02;74.11;100708.97;4992465;28;20238;-67
2021/12/19 03:57:40;;;;;;;17.07;10.23;;;;;;;3.34;69.92;100674.41;4992355;28;20330;-67
2021/12/19 04:00:12;;;;;;;16.37;10.17;;;;;;;3.43;71.64;100697.53;4995894;28;20232;-67
2021/12/19 04:02:39;;;;;;;19.53;11.13;;;;;;;2.85;73.72;100707.44;5010548;28;20267;-67
2021/12/19 04:05:06;;;;;;;17.50;10.70;;;;;;;3.86;70.16;100677.97;5010730;28;20248;-67
2021/12/19 04:07:34;;;;;;;15.03;9.57;;;;;;;1.63;76.14;100715.81;5011429;28;20242;-67
2021/12/19 04:10:01;;;;;;;18.20;10.50;;;;;;;1.46;78.07;100733.41;5010181;28;20229;-67
2021/12/19 04:12:29;;;;;;;17.33;10.90;;;;;;;4.05;69.74;100658.19;5011445;28;20229;-66
2021/12/19 04:14:56;;;;;;;17.23;10.30;;;;;;;0.62;79.41;100715.34;5011620;28;20719;-68
2021/12/19 04:17:23;;;;;;;17.27;10.07;;;;;;;1.88;76.54;100713.41;5011677;28;20722;-67
2021/12/19 04:19:50;;;;;;;18.77;11.13;;;;;;;1.51;76.80;100710.34;5018936;28;20753;-67
2021/12/19 04:22:17;;;;;;;18.40;10.73;;;;;;;1.24;78.66;100711.91;5013853;28;20646;-67
2021/12/19 04:24:44;;;;;;;17.80;10.83;;;;;;;1.46;78.56;100709.75;5010929;28;20222;-67
2021/12/19 04:27:11;;;;;;;20.73;12.83;;;;;;;1.64;78.77;100701.75;4993528;28;20231;-67
2021/12/19 04:29:38;;;;;;;23.97;13.93;;;;;;;1.45;78.24;100694.06;5010218;28;20236;-67
2021/12/19 04:32:07;;;;;;;25.77;14.00;;;;;;;0.78;80.61;100692.56;5011015;28;20724;-67
2021/12/19 04:34:34;;;;;;;22.70;13.40;;;;;;;2.13;75.38;100670.66;5007442;28;20598;-67
2021/12/19 04:37:10;;;;;;;25.90;14.17;;;;;;;2.79;74.35;100655.13;5010767;28;20239;-67
2021/12/19 04:39:51;;;;;;;24.73;13.67;;;;;;;3.89;70.03;100610.91;5010555;28;20232;-67
2021/12/19 04:43:22;;;;;;;25.13;14.10;;;;;;;3.37;70.82;100634.66;5010873;28;20240;-67
2021/12/19 04:51:09;;;;;;;17.60;11.03;;;;;;;1.59;77.42;100691.50;5007910;28;20239;-67
2021/12/19 04:56:40;;;;;;;21.27;13.00;;;;;;;1.34;79.74;100703.41;5007463;28;20226;-68
2021/12/19 04:59:24;;;;;;;24.17;14.83;;;;;;;1.14;80.07;100691.41;4992586;28;20603;-67
2021/12/19 05:15:27;;;;;;;28.83;16.43;;;;;;;2.17;75.01;100670.47;5010589;28;20244;-67
2021/12/19 05:18:00;;;;;;;30.77;17.00;;;;;;;3.61;72.41;100636.56;5009098;28;20231;-68
2021/12/19 05:20:29;;;;;;;30.23;17.17;;;;;;;3.33;71.85;100642.88;5006298;28;20721;-67
2021/12/19 05:23:04;;;;;;;30.40;17.20;;;;;;;3.12;70.79;100643.31;4970684;28;20284;-68
2021/12/19 05:25:31;;;;;;;31.13;16.80;;;;;;;3.37;70.76;100645.19;4961702;28;20233;-68
2021/12/19 05:28:00;;;;;;;34.57;19.03;;;;;;;2.51;71.66;100637.59;4983992;28;20339;-67
2021/12/19 05:30:27;;;;;;;32.57;17.37;;;;;;;1.11;79.38;100688.97;5006128;28;20239;-67
2021/12/19 05:32:55;;;;;;;32.87;18.57;;;;;;;1.11;80.17;100695.97;5008945;28;21244;-67
2021/12/19 05:46:27;;;;;;;35.33;18.30;;;;;;;3.20;72.15;100648.94;5009686;28;20229;-67
2021/12/19 05:48:55;;;;;;;31.87;18.37;;;;;;;4.22;69.16;100626.16;4987778;28;20308;-67
2021/12/19 05:51:22;;;;;;;28.87;17.37;;;;;;;2.21;74.93;100664.09;4990029;28;20237;-67
2021/12/19 05:53:49;;;;;;;33.57;17.90;;;;;;;4.09;68.87;100604.22;4989385;28;20236;-67
2021/12/19 05:56:16;;;;;;;32.40;17.40;;;;;;;4.29;68.67;100611.56;5004208;28;20296;-67
2021/12/19 05:58:43;;;;;;;35.63;18.87;;;;;;;2.67;72.94;100648.84;5007928;28;20236;-68
2021/12/19 06:01:10;;;;;;;33.53;17.10;;;;;;;3.40;70.97;100634.41;5009423;28;20221;-67
2021/12/19 06:03:37;;;;;;;26.00;15.87;;;;;;;4.63;68.08;100611.75;5009710;28;20592;-67
2021/12/19 06:06:04;;;;;;;32.87;18.00;;;;;;;3.29;69.64;100609.69;5009247;28;20232;-67
2021/12/19 06:08:31;;;;;;;34.70;17.70;;;;;;;1.63;75.77;100643.00;5004160;28;20236;-67
2021/12/19 06:10:57;;;;;;;34.77;17.77;;;;;;;4.43;68.68;100597.34;5008235;28;20225;-67
2021/12/19 06:13:24;;;;;;;34.60;18.97;;;;;;;5.42;65.08;100569.72;5009163;28;20240;-68
2021/12/19 06:15:54;;;;;;;39.10;20.00;;;;;;;4.77;67.16;100581.69;5009014;28;20232;-67
2021/12/19 06:18:21;;;;;;;34.53;18.57;;;;;;;2.49;73.69;100629.81;5009790;28;20228;-67
2021/12/19 06:20:48;;;;;;;33.20;17.93;;;;;;;0.66;80.38;100635.47;5008158;28;20799;-68
2021/12/19 06:23:16;;;;;;;34.67;19.50;;;;;;;2.23;73.06;100596.41;5008944;28;20621;-67
2021/12/19 06:25:46;;;;;;;32.80;19.33;;;;;;;3.70;71.36;100585.78;5009211;28;20236;-67
2021/12/19 06:28:17;;;;;;;29.33;16.70;;;;;;;1.40;77.98;100636.50;5009467;28;20243;-67
2021/12/19 06:30:45;;;;;;;32.63;17.47;;;;;;;3.26;73.60;100600.22;5008259;28;20258;-67
2021/12/19 06:33:12;;;;;;;27.17;16.70;;;;;;;1.80;75.56;100615.69;4999398;28;20260;-67
2021/12/19 06:35:40;;;;;;;30.17;16.43;;;;;;;2.15;74.95;100612.66;4989587;28;20230;-67
2021/12/19 06:38:07;;;;;;;29.87;17.03;;;;;;;1.20;79.36;100622.72;4989690;28;20237;-67
2021/12/19 06:40:35;;;;;;;30.23;16.40;;;;;;;1.47;79.91;100645.72;4987493;28;20234;-68
2021/12/19 06:43:02;;;;;;;33.57;17.00;;;;;;;2.96;71.74;100577.59;5002509;28;20233;-67
2021/12/19 06:45:29;;;;;;;29.97;16.73;;;;;;;1.86;74.82;100606.59;5008690;28;20639;-67
2021/12/19 06:47:56;;;;;;;31.83;16.30;;;;;;;1.93;78.42;100645.56;4991157;28;20237;-67
2021/12/19 06:50:24;;;;;;;31.27;16.80;;;;;;;1.64;78.84;100644.72;5008027;28;20254;-67
2021/12/19 06:52:52;;;;;;;26.83;15.80;;;;;;;1.15;79.76;100643.16;5007256;28;20225;-67
2021/12/19 06:55:19;;;;;;;30.47;16.03;;;;;;;1.47;79.15;100647.53;5008719;28;20586;-67
2021/12/19 06:57:46;;;;;;;30.40;15.40;;;;;;;1.73;77.83;100644.16;5008346;28;20238;-67
2021/12/19 07:00:20;;;;;;;27.07;16.70;;;;;;;2.07;77.68;100630.72;5007546;28;20225;-67
2021/12/19 07:02:47;;;;;;;28.37;16.50;;;;;;;1.04;79.82;100642.94;5007400;28;20228;-67
2021/12/19 07:05:14;;;;;;;24.73;15.37;;;;;;;1.06;78.90;100627.09;5008443;28;20241;-67
2021/12/19 07:07:41;;;;;;;22.77;14.63;;;;;;;3.31;73.86;100581.44;5008126;28;20232;-67
2021/12/19 07:10:09;;;;;;;26.13;14.47;;;;;;;2.80;73.63;100595.38;5007497;28;20807;-67
2021/12/19 07:12:36;;;;;;;24.33;14.90;;;;;;;2.13;76.50;100618.03;5008023;28;20244;-67
2021/12/19 07:15:05;;;;;;;23.77;13.63;;;;;;;2.05;74.95;100612.38;4990334;28;20449;-67
2021/12/19 07:17:32;;;;;;;24.77;14.70;;;;;;;3.44;71.22;100571.78;5008583;28;20238;-67
2021/12/19 07:19:59;;;;;;;23.37;13.53;;;;;;;1.48;78.45;100636.03;5009746;28;20626;-67
2021/12/19 07:22:26;;;;;;;22.90;13.93;;;;;;;0.80;78.94;100624.19;5012497;28;20249;-67
2021/12/19 07:24:53;;;;;;;28.17;15.50;;;;;;;2.19;75.95;100597.53;5007900;28;20241;-67
2021/12/19 07:27:20;;;;;;;26.07;14.60;;;;;;;1.19;77.35;100613.13;5011584;28;20689;-68
2021/12/19 07:29:48;;;;;;;23.73;14.77;;;;;;;1.10;79.09;100634.72;5011576;28;20240;-67
2021/12/19 07:32:15;;;;;;;24.87;14.20;;;;;;;0.72;79.04;100629.00;5011022;28;20229;-67
2021/12/19 07:34:43;;;;;;;26.27;14.83;;;;;;;0.10;82.48;100631.53;5010461;28;20243;-67
2021/12/19 07:37:10;;;;;;;28.20;15.83;;;;;;;1.85;77.74;100618.88;5011491;28;20607;-67
2021/12/19 07:39:41;;;;;;;25.10;13.90;;;;;;;0.85;80.16;100640.53;5011892;28;20239;-67
2021/12/19 07:42:10;;;;;;;26.23;15.57;;;;;;;1.87;78.37;100616.16;5011527;28;20228;-67
2021/12/19 07:44:38;;;;;;;26.97;15.07;;;;;;;2.03;77.97;100629.22;5011581;28;20232;-67
2021/12/19 07:47:08;;;;;;;28.57;14.60;;;;;;;0.35;81.72;100644.19;5012311;28;20236;-67
2021/12/19 07:49:35;;;;;;;27.07;14.20;;;;;;;0.68;82.40;100651.97;5011070;28;20236;-67
2021/12/19 07:52:04;;;;;;;27.27;15.20;;;;;;;0.80;80.49;100634.69;5010885;28;20241;-67
2021/12/19 07:54:30;;;;;;;25.20;16.07;;;;;;;1.04;80.49;100650.81;5000721;28;20224;-67
2021/12/19 07:56:57;;;;;;;29.83;17.20;;;;;;;0.64;81.78;100653.09;5010826;28;20235;-67
2021/12/19 07:59:24;;;;;;;29.47;17.07;;;;;;;1.24;78.83;100618.13;5000270;28;20656;-67
2021/12/19 08:01:51;;;;;;;25.83;15.37;;;;;;;1.08;79.43;100618.19;5009985;28;20734;-67
2021/12/19 08:04:18;;;;;;;21.60;13.67;;;;;;;2.30;74.26;100577.47;5011578;28;20251;-67
2021/12/19 08:06:45;;;;;;;24.87;14.13;;;;;;;2.24;76.19;100585.78;5009972;28;20232;-67
2021/12/19 08:09:22;;;;;;;25.73;17.07;;;;;;;2.68;74.60;100583.84;5010497;28;20493;-67
2021/12/19 08:11:51;;;;;;;24.50;14.40;;;;;;;3.06;70.24;100552.28;5011246;28;20662;-67
2021/12/19 08:14:18;;;;;;;22.80;13.30;;;;;;;2.16;74.35;100602.97;4994368;28;20232;-67
2021/12/19 08:16:46;;;;;;;24.13;12.87;;;;;;;3.50;71.70;100565.22;5007500;28;20240;-67
2021/12/19 08:19:14;;;;;;;22.20;12.80;;;;;;;1.78;72.02;100572.00;5008953;28;20239;-67
2021/12/19 08:21:41;;;;;;;20.87;11.67;;;;;;;2.38;75.26;100613.00;5010965;28;20230;-67
2021/12/19 08:24:11;;;;;;;20.77;12.53;;;;;;;3.89;68.84;100542.25;5010650;28;20235;-67
2021/12/19 08:26:40;;;;;;;24.53;13.47;;;;;;;2.66;70.02;100556.75;5010290;28;20233;-67
2021/12/19 08:29:10;;;;;;;20.40;12.63;;;;;;;0.68;79.39;100641.47;5010246;28;20236;-67
2021/12/19 08:31:39;;;;;;;18.20;10.70;;;;;;;0.19;82.13;100638.94;4993312;28;20236;-67
2021/12/19 08:34:06;;;;;;;19.57;11.97;;;;;;;1.76;77.45;100603.66;5010609;28;20236;-67
2021/12/19 08:36:33;;;;;;;20.57;12.50;;;;;;;3.14;74.06;100567.59;5011022;28;20246;-67
2021/12/19 08:39:01;;;;;;;18.90;11.23;;;;;;;1.12;79.69;100632.84;4993447;28;20236;-67
2021/12/19 08:41:27;;;;;;;17.97;10.33;;;;;;;0.44;81.44;100638.44;5009969;28;20234;-67
2021/12/19 08:43:55;;;;;;;16.10;9.17;;;;;;;0.34;81.60;100635.47;5011152;28;20241;-67
2021/12/19 08:46:22;;;;;;;15.97;10.43;;;;;;;1.17;79.49;100630.78;5010692;28;20229;-67
2021/12/19 08:48:49;;;;;;;15.83;10.03;;;;;;;0.99;78.45;100623.97;5010503;28;20233;-67
2021/12/19 08:51:17;;;;;;;17.00;10.57;;;;;;;0.72;79.15;100621.97;5003146;28;20243;-67
2021/12/19 08:53:43;;;;;;;16.07;10.40;;;;;;;1.52;76.37;100598.97;4991220;28;20833;-67
2021/12/19 08:56:11;;;;;;;16.10;11.20;;;;;;;0.11;81.86;100625.38;4991416;28;20229;-67
2021/12/19 08:58:38;;;;;;;14.03;9.53;;;;;;;0.93;81.18;100621.72;4990551;28;20595;-67
2021/12/19 09:01:05;;;;;;;18.37;11.43;;;;;;;1.44;77.66;100590.69;4990088;28;20237;-67
2021/12/19 09:03:32;;;;;;;19.40;11.00;;;;;;;2.20;77.59;100570.25;4999148;28;20244;-67
2021/12/19 09:06:00;;;;;;;15.83;10.00;;;;;;;2.85;75.37;100546.69;5011252;28;20600;-67
2021/12/19 09:08:27;;;;;;;39.43;24.47;;;;;;;1.50;76.67;100599.97;5010353;28;20231;-67
2021/12/19 09:10:56;;;;;;;42.23;26.90;;;;;;;4.08;69.54;100510.97;4991273;28;20688;-67
2021/12/19 09:13:23;;;;;;;19.27;13.13;;;;;;;2.17;72.57;100563.38;5010694;28;20616;-67
2021/12/19 09:15:51;;;;;;;21.70;11.80;;;;;;;1.54;74.70;100575.22;5009383;28;20604;-68
2021/12/19 09:18:19;;;;;;;18.23;12.53;;;;;;;3.56;71.40;100539.25;4992677;28;20229;-67
2021/12/19 09:20:46;;;;;;;17.77;12.77;;;;;;;2.10;75.41;100589.25;5004321;28;20229;-67
2021/12/19 09:23:13;;;;;;;22.87;13.87;;;;;;;1.42;78.47;100618.00;4991280;28;20238;-67
2021/12/19 09:25:40;;;;;;;21.40;13.00;;;;;;;1.75;76.84;100604.59;4984735;28;20469;-67
2021/12/19 09:28:07;;;;;;;16.23;10.60;;;;;;;2.56;76.00;100584.63;5010123;28;20229;-67
2021/12/19 09:30:34;;;;;;;16.67;11.13;;;;;;;1.70;74.27;100585.63;5008745;28;20233;-67
2021/12/19 09:33:03;;;;;;;16.37;11.60;;;;;;;1.06;77.89;100611.31;5010112;28;20242;-67
2021/12/19 09:35:31;;;;;;;15.53;10.23;;;;;;;2.17;74.36;100592.34;4992989;28;20739;-67
2021/12/19 09:37:57;;;;;;;18.43;9.67;;;;;;;1.02;77.89;100621.16;5009775;28;21044;-67
2021/12/19 09:40:32;;;;;;;17.23;10.10;;;;;;;3.10;71.38;100568.78;5009874;28;20625;-67
2021/12/19 09:43:03;;;;;;;15.93;10.33;;;;;;;3.69;69.90;100554.22;4990625;28;21534;-67
2021/12/19 09:45:33;;;;;;;18.57;10.63;;;;;;;2.29;75.42;100615.28;5010468;28;20225;-67
2021/12/19 09:48:00;;;;;;;14.83;10.27;;;;;;;2.25;75.46;100608.50;5009854;28;20717;-68
2021/12/19 09:50:29;;;;;;;20.27;14.53;;;;;;;2.54;73.01;100583.88;5008742;28;20240;-67
2021/12/19 09:52:56;;;;;;;16.83;10.00;;;;;;;1.65;79.06;100632.41;5009241;28;20835;-67
2021/12/19 09:55:28;;;;;;;17.40;11.17;;;;;;;1.20;79.53;100638.50;5009551;28;20580;-67
2021/12/19 09:57:55;;;;;;;15.73;10.93;;;;;;;2.89;75.70;100572.84;5009922;28;20634;-67
2021/12/19 10:00:22;;;;;;;15.27;11.03;;;;;;;1.19;77.80;100612.28;5008587;28;20221;-67
2021/12/19 10:02:49;;;;;;;20.03;10.93;;;;;;;1.52;77.09;100612.13;5009289;28;20241;-67
2021/12/19 10:05:25;;;;;;;15.67;10.10;;;;;;;4.03;70.03;100528.94;5009123;28;20720;-67
2021/12/19 10:07:55;;;;;;;17.83;11.30;;;;;;;3.44;70.43;100529.56;5009168;28;20755;-67
2021/12/19 10:10:36;;;;;;;15.03;9.37;;;;;;;4.71;66.58;100513.41;5009364;28;20235;-68
2021/12/19 10:13:03;;;;;;;16.77;11.60;;;;;;;3.95;68.45;100515.44;5007107;28;20797;-67
2021/12/19 10:15:35;;;;;;;14.10;8.83;;;;;;;4.41;67.36;100511.25;5009671;28;20705;-67
2021/12/19 10:18:15;;;;;;;11.93;8.00;;;;;;;4.49;66.82;100504.44;5008760;28;20225;-68
2021/12/19 10:20:51;;;;;;;11.67;6.73;;;;;;;5.23;63.98;100490.94;5007989;28;20717;-67
2021/12/19 10:23:22;;;;;;;11.23;7.37;;;;;;;4.76;64.68;100473.41;5008679;28;20239;-67
2021/12/19 10:26:06;;;;;;;10.60;6.77;;;;;;;4.77;65.83;100498.88;5009331;28;20244;-67
2021/12/19 10:28:47;;;;;;;10.30;7.00;;;;;;;5.52;62.83;100490.47;5008254;28;20240;-67
2021/12/19 10:31:14;;;;;;;12.00;7.73;;;;;;;4.63;65.63;100486.72;5008543;28;20716;-67
2021/12/19 10:33:41;;;;;;;9.37;6.50;;;;;;;4.57;65.71;100485.38;5008768;28;20604;-67
2021/12/19 10:36:09;;;;;;;8.77;6.53;;;;;;;5.57;62.46;100479.53;5003579;28;20223;-68
2021/12/19 10:38:45;;;;;;;9.17;6.63;;;;;;;5.07;63.72;100464.00;5008397;28;20235;-67
2021/12/19 10:41:23;;;;;;;8.40;5.60;;;;;;;4.94;65.04;100482.63;5007752;28;20232;-67
2021/12/19 10:44:05;;;;;;;10.87;6.67;;;;;;;5.00;63.41;100465.44;5008998;28;20237;-67
2021/12/19 10:46:40;;;;;;;13.10;7.50;;;;;;;5.14;63.39;100465.19;5007079;28;20235;-67
2021/12/19 10:49:28;;;;;;;12.03;7.20;;;;;;;5.12;63.69;100472.41;5009352;28;20230;-67
2021/12/19 10:52:01;;;;;;;11.43;6.70;;;;;;;4.82;63.67;100455.28;4985953;28;20735;-67
2021/12/19 10:54:29;;;;;;;12.43;7.90;;;;;;;4.72;64.64;100488.66;4988767;28;20256;-67
2021/12/19 10:57:09;;;;;;;11.27;6.70;;;;;;;4.73;63.91;100459.44;4988748;28;21638;-67
2021/12/19 10:59:36;;;;;;;10.20;7.67;;;;;;;5.03;63.51;100454.63;4987396;28;20720;-67
2021/12/19 11:03:53;;;;;;;10.90;7.13;;;;;;;2.99;70.10;100503.59;5094421;27;20366;-68
2021/12/19 11:06:40;;;;;;;9.00;6.03;;;;;;;3.53;68.29;100485.88;5081050;28;20682;-66
2021/12/19 11:09:24;;;;;;;10.87;6.20;;;;;;;3.50;67.91;100468.47;5064115;28;20623;-66
2021/12/19 11:11:57;;;;;;;10.10;6.37;;;;;;;2.45;71.28;100485.28;5065617;28;20239;-66
2021/12/19 11:14:28;;;;;;;10.40;6.33;;;;;;;3.02;68.58;100463.00;5065419;28;20391;-66
2021/12/19 11:16:59;;;;;;;9.93;6.37;;;;;;;3.54;68.59;100462.03;5081351;28;21780;-65
2021/12/19 11:19:27;;;;;;;8.57;5.60;;;;;;;4.05;66.50;100450.47;5072910;28;20229;-66
2021/12/19 11:22:25;;;;;;;9.07;5.67;;;;;;;4.24;65.69;100435.91;5083962;28;20229;-66
2021/12/19 11:24:58;;;;;;;8.17;5.63;;;;;;;3.69;67.04;100433.72;5084819;28;20602;-65
2021/12/19 11:27:26;;;;;;;9.63;7.00;;;;;;;3.12;69.21;100456.16;5085087;28;20233;-66
2021/12/19 11:29:54;;;;;;;9.20;6.57;;;;;;;3.36;69.30;100450.13;5084912;28;20226;-66
2021/12/19 11:32:43;;;;;;;9.50;6.63;;;;;;;3.59;68.19;100430.03;5085201;28;20231;-68
2021/12/19 11:35:18;;;;;;;11.43;6.70;;;;;;;3.50;68.39;100430.69;5084688;28;20776;-66
2021/12/19 11:37:59;;;;;;;12.40;8.00;;;;;;;2.93;69.87;100434.63;5084666;28;20697;-66
2021/12/19 11:40:31;;;;;;;11.17;6.60;;;;;;;4.00;65.92;100406.88;5078403;28;20240;-66
2021/12/19 11:43:04;;;;;;;10.87;7.17;;;;;;;4.08;65.29;100391.28;5074165;28;20853;-66
2021/12/19 11:45:36;;;;;;;15.67;11.10;;;;;;;3.43;68.29;100422.38;4185986;28;10000938;-66
2021/12/19 11:48:35;;;;;;;7.43;5.33;;;;;;;4.10;65.65;100392.03;5061235;28;20229;-66
2021/12/19 11:51:20;;;;;;;7.97;5.00;;;;;;;4.34;64.88;100392.00;5044484;28;20788;-66
2021/12/19 11:53:47;;;;;;;7.83;5.30;;;;;;;4.02;65.58;100394.41;5048199;28;20239;-66
2021/12/19 11:56:16;;;;;;;7.40;4.90;;;;;;;3.57;67.15;100390.59;5039548;28;20227;-67
2021/12/19 11:58:48;;;;;;;8.87;6.03;;;;;;;3.37;67.76;100392.03;5060467;28;20241;-66
2021/12/19 12:01:35;;;;;;;9.03;5.80;;;;;;;3.46;68.25;100402.88;5057043;28;20224;-72
2021/12/19 12:04:13;;;;;;;6.67;5.53;;;;;;;3.73;66.30;100374.47;5044805;28;20224;-72
2021/12/19 12:06:42;;;;;;;8.77;5.80;;;;;;;3.95;66.05;100367.63;5043691;28;20235;-66
2021/12/19 12:09:40;;;;;;;8.10;6.33;;;;;;;3.72;66.52;100382.50;5044410;28;20671;-69
2021/12/19 12:12:18;;;;;;;9.13;6.10;;;;;;;4.04;65.13;100353.72;5044134;28;20236;-66
2021/12/19 12:14:56;;;;;;;21.27;15.27;;;;;;;3.23;67.70;100360.47;5047527;28;20582;-69
2021/12/19 12:17:31;;;;;;;10.30;7.30;;;;;;;3.06;67.78;100367.78;5034932;28;20224;-68
2021/12/19 12:20:01;;;;;;;8.60;6.47;;;;;;;3.01;68.80;100364.63;5022023;28;20242;-70
2021/12/19 12:25:08;;;;;;;10.90;6.67;;;;;;;3.57;67.75;100344.88;5030440;28;20261;-66
2021/12/19 12:27:40;;;;;;;7.77;5.50;;;;;;;3.43;67.04;100336.16;5030669;28;20236;-67
2021/12/19 12:30:28;;;;;;;9.07;6.27;;;;;;;3.76;66.77;100325.91;5030148;28;20230;-72
2021/12/19 12:32:58;;;;;;;10.30;7.40;;;;;;;3.30;67.73;100330.06;5039913;28;20220;-71
2021/12/19 12:35:28;;;;;;;8.83;6.13;;;;;;;3.55;67.70;100321.25;5038674;28;20230;-70
2021/12/19 12:37:55;;;;;;;8.57;6.00;;;;;;;3.38;68.28;100317.19;5040354;28;20231;-72